Terminal Aerodrome Forecast
Issued by NWS

Home | Current Version | Previous Version | Text Only | Print | Product List | Glossary On
Versions: 1 2 3 4 5 6 7 8 9 10 11 12
000
FTUS42 KTBW 300538
TAFRSW
TAF
KRSW 300538Z 3006/3106 VRB03KT P6SM SCT050 BKN120
     FM301600 20006KT P6SM VCTS SCT050CB BKN100
     FM310000 16007KT P6SM SCT060 BKN120
     FM310200 07004KT P6SM SCT050 BKN090=

USA.gov is the U.S. government's official web portal to all federal, state and local government web resources and services.